Aviation Digital Data Service (ADDS)

Output produced by METARs form (1244 UTC 21 February 2018)
found at http://www.aviationweather.gov/adds/metars/
 
KOAK 201126Z 2012/2118 02005KT P6SM SKC 
     FM201700 27006KT P6SM SKC 
     FM202100 27008KT P6SM FEW060 FEW120 
     FM210400 VRB04KT P6SM SCT060 BKN200 
     FM211200 VRB04KT P6SM VCSH BKN050
       
TAF AMD KOFF 201420Z 2014/2116 30012KT 9999 BKN015 OVC050 620402 QNH2985INS 
     TEMPO 2014/2015 8000 -FZDZ BKN010 660001 
     BECMG 2014/2016 32015G20KT 9999 FEW020 QNH2999INS 
     BECMG 2020/2021 35012KT 9999 FEW030 QNH3013INS WND 03009KT AFT 2112 TXM04/2021Z TNM09/2109Z
       
KOKC 211241Z 2113/2212 01018KT P6SM OVC012 
     TEMPO 2113/2114 SCT015 
     FM211700 02018KT 3SM -FZRAPL BR OVC007 
     TEMPO 2119/2122 3SM FZRAPL BR OVC007 
     FM220500 36010KT P6SM BKN006
       
KONT 201120Z 2012/2118 VRB05KT P6SM SKC 
     FM202200 26008KT P6SM SKC 
     FM210400 VRB04KT P6SM SKC
       
KORD 201124Z 2012/2118 22012KT 4SM -RA BR SCT009 SCT012 OVC018 
     TEMPO 2012/2016 2SM SHRA BR OVC009 
     FM201600 23012KT 4SM SHRA BR SCT006 OVC010 
     TEMPO 2018/2022 2SM TSRA BR OVC006CB 
     FM202200 30011KT 2SM SHRA BR SCT004 OVC007 
     FM210500 32012G17KT 4SM -FZRAPL BR SCT007 OVC015 
     FM210700 33012G17KT P6SM SCT015 BKN080 
     FM211300 33012KT P6SM BKN250
       
KOUN 211243Z 2113/2212 02017KT P6SM OVC012 
     FM211600 02016KT 3SM -FZRAPL BR OVC007 
     TEMPO 2118/2121 3SM FZRAPL BR OVC007 
     FM220500 36010KT P6SM BKN006
       
TAF AMD KOZR 201500Z 2015/2114 13009KT 9999 OVC010 510052 QNH3024INS 
     BECMG 2015/2016 13012KT 9999 BKN015 510052 QNH3028INS 
     BECMG 2017/2018 14012G18KT 9999 BKN020 QNH3027INS 
     BECMG 2023/2024 15006KT 8000 BR BKN015 QNH3033INS TX27/2020Z TN16/2110Z